sensor_id;sensor_type;location;lat;lon;timestamp;P1;durP1;ratioP1;P2;durP2;ratioP2
15645;SDS011;7922;43.622;1.476;2024-03-25T00:01:33;5.30;;;2.90;;
15645;SDS011;7922;43.622;1.476;2024-03-25T00:03:58;4.93;;;2.97;;
15645;SDS011;7922;43.622;1.476;2024-03-25T00:06:24;9.13;;;3.40;;
15645;SDS011;7922;43.622;1.476;2024-03-25T00:08:49;9.47;;;6.23;;
15645;SDS011;7922;43.622;1.476;2024-03-25T00:11:18;12.50;;;7.30;;
15645;SDS011;7922;43.622;1.476;2024-03-25T00:13:43;8.67;;;4.50;;
15645;SDS011;7922;43.622;1.476;2024-03-25T00:16:11;5.90;;;3.10;;
15645;SDS011;7922;43.622;1.476;2024-03-25T00:18:36;4.60;;;2.60;;
15645;SDS011;7922;43.622;1.476;2024-03-25T00:21:03;4.47;;;2.77;;
15645;SDS011;7922;43.622;1.476;2024-03-25T00:23:28;4.93;;;3.17;;
15645;SDS011;7922;43.622;1.476;2024-03-25T00:25:53;3.60;;;2.70;;
15645;SDS011;7922;43.622;1.476;2024-03-25T00:28:19;4.30;;;2.77;;
15645;SDS011;7922;43.622;1.476;2024-03-25T00:30:44;4.77;;;3.10;;
15645;SDS011;7922;43.622;1.476;2024-03-25T00:33:10;5.00;;;3.03;;
15645;SDS011;7922;43.622;1.476;2024-03-25T00:35:35;4.10;;;3.37;;
15645;SDS011;7922;43.622;1.476;2024-03-25T00:38:01;4.17;;;2.90;;
15645;SDS011;7922;43.622;1.476;2024-03-25T00:40:26;4.00;;;2.67;;
15645;SDS011;7922;43.622;1.476;2024-03-25T00:42:52;4.50;;;3.13;;
15645;SDS011;7922;43.622;1.476;2024-03-25T00:45:18;6.83;;;3.33;;
15645;SDS011;7922;43.622;1.476;2024-03-25T00:47:43;4.93;;;3.43;;
15645;SDS011;7922;43.622;1.476;2024-03-25T00:50:08;5.20;;;3.10;;
15645;SDS011;7922;43.622;1.476;2024-03-25T00:52:34;5.40;;;3.40;;
15645;SDS011;7922;43.622;1.476;2024-03-25T00:55:00;3.83;;;3.13;;
15645;SDS011;7922;43.622;1.476;2024-03-25T00:57:26;5.23;;;3.50;;
15645;SDS011;7922;43.622;1.476;2024-03-25T00:59:51;5.43;;;3.10;;
15645;SDS011;7922;43.622;1.476;2024-03-25T01:02:17;6.27;;;3.60;;
15645;SDS011;7922;43.622;1.476;2024-03-25T01:04:42;5.77;;;3.33;;
15645;SDS011;7922;43.622;1.476;2024-03-25T01:07:08;4.87;;;3.53;;
15645;SDS011;7922;43.622;1.476;2024-03-25T01:09:33;5.87;;;3.30;;
15645;SDS011;7922;43.622;1.476;2024-03-25T01:11:59;4.43;;;3.03;;
15645;SDS011;7922;43.622;1.476;2024-03-25T01:14:24;4.77;;;3.53;;
15645;SDS011;7922;43.622;1.476;2024-03-25T01:16:49;7.33;;;3.30;;
15645;SDS011;7922;43.622;1.476;2024-03-25T01:19:15;6.07;;;3.70;;
15645;SDS011;7922;43.622;1.476;2024-03-25T01:21:40;3.63;;;3.13;;
15645;SDS011;7922;43.622;1.476;2024-03-25T01:24:07;6.03;;;3.27;;
15645;SDS011;7922;43.622;1.476;2024-03-25T01:26:32;3.07;;;2.77;;
15645;SDS011;7922;43.622;1.476;2024-03-25T01:28:57;3.87;;;3.00;;
15645;SDS011;7922;43.622;1.476;2024-03-25T01:31:23;4.40;;;2.70;;
15645;SDS011;7922;43.622;1.476;2024-03-25T01:33:48;4.70;;;2.50;;
15645;SDS011;7922;43.622;1.476;2024-03-25T01:36:14;4.43;;;2.80;;
15645;SDS011;7922;43.622;1.476;2024-03-25T01:38:39;5.03;;;3.07;;
15645;SDS011;7922;43.622;1.476;2024-03-25T01:41:08;6.33;;;3.10;;
15645;SDS011;7922;43.622;1.476;2024-03-25T01:43:34;5.53;;;2.50;;
15645;SDS011;7922;43.622;1.476;2024-03-25T01:46:00;4.90;;;2.50;;
15645;SDS011;7922;43.622;1.476;2024-03-25T01:48:26;5.50;;;2.70;;
15645;SDS011;7922;43.622;1.476;2024-03-25T01:50:51;4.83;;;2.40;;
15645;SDS011;7922;43.622;1.476;2024-03-25T01:53:18;2.80;;;2.13;;
15645;SDS011;7922;43.622;1.476;2024-03-25T01:55:44;3.40;;;2.30;;
15645;SDS011;7922;43.622;1.476;2024-03-25T01:58:09;4.30;;;2.50;;
15645;SDS011;7922;43.622;1.476;2024-03-25T02:00:34;4.03;;;2.60;;
15645;SDS011;7922;43.622;1.476;2024-03-25T02:03:00;3.87;;;2.47;;
15645;SDS011;7922;43.622;1.476;2024-03-25T02:05:26;5.23;;;2.77;;
15645;SDS011;7922;43.622;1.476;2024-03-25T02:07:51;5.67;;;2.47;;
15645;SDS011;7922;43.622;1.476;2024-03-25T02:10:18;3.50;;;2.40;;
15645;SDS011;7922;43.622;1.476;2024-03-25T02:12:45;3.80;;;2.40;;
15645;SDS011;7922;43.622;1.476;2024-03-25T02:15:11;4.50;;;2.80;;
15645;SDS011;7922;43.622;1.476;2024-03-25T02:17:37;4.57;;;2.87;;
15645;SDS011;7922;43.622;1.476;2024-03-25T02:20:03;5.50;;;2.67;;
15645;SDS011;7922;43.622;1.476;2024-03-25T02:22:29;3.03;;;2.40;;
15645;SDS011;7922;43.622;1.476;2024-03-25T02:24:55;5.00;;;2.83;;
15645;SDS011;7922;43.622;1.476;2024-03-25T02:27:22;4.17;;;2.70;;
15645;SDS011;7922;43.622;1.476;2024-03-25T02:29:48;3.63;;;2.70;;
15645;SDS011;7922;43.622;1.476;2024-03-25T02:32:14;3.93;;;2.40;;
15645;SDS011;7922;43.622;1.476;2024-03-25T02:34:45;3.97;;;2.57;;
15645;SDS011;7922;43.622;1.476;2024-03-25T02:37:14;3.80;;;2.30;;
15645;SDS011;7922;43.622;1.476;2024-03-25T02:39:40;4.17;;;2.43;;
15645;SDS011;7922;43.622;1.476;2024-03-25T02:42:06;4.70;;;2.70;;
15645;SDS011;7922;43.622;1.476;2024-03-25T02:44:31;3.37;;;2.40;;
15645;SDS011;7922;43.622;1.476;2024-03-25T02:46:58;4.67;;;2.73;;
15645;SDS011;7922;43.622;1.476;2024-03-25T02:49:23;5.90;;;2.80;;
15645;SDS011;7922;43.622;1.476;2024-03-25T02:51:49;4.43;;;2.50;;
15645;SDS011;7922;43.622;1.476;2024-03-25T02:54:14;3.27;;;2.40;;
15645;SDS011;7922;43.622;1.476;2024-03-25T02:56:40;4.63;;;3.07;;
15645;SDS011;7922;43.622;1.476;2024-03-25T02:59:06;4.87;;;2.60;;
15645;SDS011;7922;43.622;1.476;2024-03-25T03:01:31;5.40;;;2.60;;
15645;SDS011;7922;43.622;1.476;2024-03-25T03:03:56;7.03;;;2.83;;
15645;SDS011;7922;43.622;1.476;2024-03-25T03:06:22;4.53;;;2.57;;
15645;SDS011;7922;43.622;1.476;2024-03-25T03:08:47;4.13;;;2.50;;
15645;SDS011;7922;43.622;1.476;2024-03-25T03:11:12;5.00;;;2.80;;
15645;SDS011;7922;43.622;1.476;2024-03-25T03:13:38;3.10;;;2.60;;
15645;SDS011;7922;43.622;1.476;2024-03-25T03:16:03;4.83;;;2.73;;
15645;SDS011;7922;43.622;1.476;2024-03-25T03:18:29;5.00;;;2.93;;
15645;SDS011;7922;43.622;1.476;2024-03-25T03:20:54;4.90;;;2.73;;
15645;SDS011;7922;43.622;1.476;2024-03-25T03:23:19;4.60;;;2.60;;
15645;SDS011;7922;43.622;1.476;2024-03-25T03:25:44;5.53;;;2.73;;
15645;SDS011;7922;43.622;1.476;2024-03-25T03:28:10;4.23;;;2.90;;
15645;SDS011;7922;43.622;1.476;2024-03-25T03:30:38;4.37;;;3.13;;
15645;SDS011;7922;43.622;1.476;2024-03-25T03:33:03;4.60;;;2.87;;
15645;SDS011;7922;43.622;1.476;2024-03-25T03:35:29;3.40;;;2.80;;
15645;SDS011;7922;43.622;1.476;2024-03-25T03:37:57;3.97;;;2.80;;
15645;SDS011;7922;43.622;1.476;2024-03-25T03:40:22;5.63;;;2.90;;
15645;SDS011;7922;43.622;1.476;2024-03-25T03:42:48;2.80;;;2.10;;
15645;SDS011;7922;43.622;1.476;2024-03-25T03:45:13;4.43;;;2.50;;
15645;SDS011;7922;43.622;1.476;2024-03-25T03:47:38;4.83;;;2.70;;
15645;SDS011;7922;43.622;1.476;2024-03-25T03:50:03;3.87;;;2.20;;
15645;SDS011;7922;43.622;1.476;2024-03-25T03:52:29;4.40;;;2.67;;
15645;SDS011;7922;43.622;1.476;2024-03-25T03:54:54;5.47;;;2.40;;
15645;SDS011;7922;43.622;1.476;2024-03-25T03:57:19;3.47;;;2.60;;
15645;SDS011;7922;43.622;1.476;2024-03-25T03:59:45;4.17;;;2.63;;
15645;SDS011;7922;43.622;1.476;2024-03-25T04:02:10;2.80;;;2.33;;
15645;SDS011;7922;43.622;1.476;2024-03-25T04:04:35;5.07;;;2.93;;
15645;SDS011;7922;43.622;1.476;2024-03-25T04:07:01;4.73;;;2.90;;
15645;SDS011;7922;43.622;1.476;2024-03-25T04:09:27;4.77;;;2.90;;
15645;SDS011;7922;43.622;1.476;2024-03-25T04:11:52;2.80;;;2.30;;
15645;SDS011;7922;43.622;1.476;2024-03-25T04:14:18;3.60;;;2.40;;
15645;SDS011;7922;43.622;1.476;2024-03-25T04:16:43;5.67;;;2.63;;
15645;SDS011;7922;43.622;1.476;2024-03-25T04:19:08;5.20;;;2.37;;
15645;SDS011;7922;43.622;1.476;2024-03-25T04:21:34;4.20;;;2.60;;
15645;SDS011;7922;43.622;1.476;2024-03-25T04:23:59;4.97;;;2.60;;
15645;SDS011;7922;43.622;1.476;2024-03-25T04:26:24;4.27;;;2.50;;
15645;SDS011;7922;43.622;1.476;2024-03-25T04:28:49;4.67;;;2.60;;
15645;SDS011;7922;43.622;1.476;2024-03-25T04:31:15;3.97;;;2.47;;
15645;SDS011;7922;43.622;1.476;2024-03-25T04:33:40;4.57;;;2.43;;
15645;SDS011;7922;43.622;1.476;2024-03-25T04:36:06;4.90;;;2.70;;
15645;SDS011;7922;43.622;1.476;2024-03-25T04:38:31;3.97;;;2.50;;
15645;SDS011;7922;43.622;1.476;2024-03-25T04:40:57;4.80;;;2.67;;
15645;SDS011;7922;43.622;1.476;2024-03-25T04:43:22;2.93;;;2.47;;
15645;SDS011;7922;43.622;1.476;2024-03-25T04:45:47;3.30;;;2.37;;
15645;SDS011;7922;43.622;1.476;2024-03-25T04:48:13;3.17;;;2.63;;
15645;SDS011;7922;43.622;1.476;2024-03-25T04:50:38;5.77;;;2.87;;
15645;SDS011;7922;43.622;1.476;2024-03-25T04:53:03;4.30;;;2.60;;
15645;SDS011;7922;43.622;1.476;2024-03-25T04:55:28;3.67;;;2.70;;
15645;SDS011;7922;43.622;1.476;2024-03-25T04:57:54;4.20;;;2.30;;
15645;SDS011;7922;43.622;1.476;2024-03-25T05:00:19;3.40;;;2.60;;
15645;SDS011;7922;43.622;1.476;2024-03-25T05:02:44;3.03;;;2.43;;
15645;SDS011;7922;43.622;1.476;2024-03-25T05:05:10;3.77;;;2.60;;
15645;SDS011;7922;43.622;1.476;2024-03-25T05:07:35;4.03;;;2.70;;
15645;SDS011;7922;43.622;1.476;2024-03-25T05:10:01;3.93;;;2.70;;
15645;SDS011;7922;43.622;1.476;2024-03-25T05:12:26;4.80;;;2.57;;
15645;SDS011;7922;43.622;1.476;2024-03-25T05:14:52;3.57;;;2.50;;
15645;SDS011;7922;43.622;1.476;2024-03-25T05:17:17;3.57;;;2.03;;
15645;SDS011;7922;43.622;1.476;2024-03-25T05:19:42;5.00;;;2.20;;
15645;SDS011;7922;43.622;1.476;2024-03-25T05:22:08;3.43;;;2.13;;
15645;SDS011;7922;43.622;1.476;2024-03-25T05:24:33;3.33;;;2.10;;
15645;SDS011;7922;43.622;1.476;2024-03-25T05:26:58;5.27;;;2.40;;
15645;SDS011;7922;43.622;1.476;2024-03-25T05:29:23;4.57;;;2.20;;
15645;SDS011;7922;43.622;1.476;2024-03-25T05:31:56;3.03;;;2.20;;
15645;SDS011;7922;43.622;1.476;2024-03-25T05:34:25;3.43;;;2.33;;
15645;SDS011;7922;43.622;1.476;2024-03-25T05:36:51;4.30;;;2.43;;
15645;SDS011;7922;43.622;1.476;2024-03-25T05:39:16;3.03;;;2.40;;
15645;SDS011;7922;43.622;1.476;2024-03-25T05:41:42;3.37;;;2.00;;
15645;SDS011;7922;43.622;1.476;2024-03-25T05:44:07;5.87;;;2.43;;
15645;SDS011;7922;43.622;1.476;2024-03-25T05:46:32;2.67;;;2.20;;
15645;SDS011;7922;43.622;1.476;2024-03-25T05:49:00;4.73;;;2.57;;
15645;SDS011;7922;43.622;1.476;2024-03-25T05:51:26;2.93;;;2.40;;
15645;SDS011;7922;43.622;1.476;2024-03-25T05:53:52;4.03;;;2.63;;
15645;SDS011;7922;43.622;1.476;2024-03-25T05:56:17;4.20;;;2.23;;
15645;SDS011;7922;43.622;1.476;2024-03-25T05:58:42;3.50;;;2.20;;
15645;SDS011;7922;43.622;1.476;2024-03-25T06:01:07;2.83;;;2.20;;
15645;SDS011;7922;43.622;1.476;2024-03-25T06:03:33;2.87;;;2.10;;
15645;SDS011;7922;43.622;1.476;2024-03-25T06:05:58;2.83;;;2.10;;
15645;SDS011;7922;43.622;1.476;2024-03-25T06:08:23;5.17;;;2.80;;
15645;SDS011;7922;43.622;1.476;2024-03-25T06:10:49;5.80;;;2.53;;
15645;SDS011;7922;43.622;1.476;2024-03-25T06:13:14;3.50;;;2.43;;
15645;SDS011;7922;43.622;1.476;2024-03-25T06:15:39;5.73;;;2.50;;
15645;SDS011;7922;43.622;1.476;2024-03-25T06:18:04;8.07;;;2.80;;
15645;SDS011;7922;43.622;1.476;2024-03-25T06:20:30;5.30;;;3.03;;
15645;SDS011;7922;43.622;1.476;2024-03-25T06:22:55;5.30;;;3.37;;
15645;SDS011;7922;43.622;1.476;2024-03-25T06:25:20;5.47;;;3.90;;
15645;SDS011;7922;43.622;1.476;2024-03-25T06:27:46;4.50;;;2.97;;
15645;SDS011;7922;43.622;1.476;2024-03-25T06:30:11;3.27;;;2.60;;
15645;SDS011;7922;43.622;1.476;2024-03-25T06:32:36;4.60;;;2.43;;
15645;SDS011;7922;43.622;1.476;2024-03-25T06:35:02;4.63;;;2.77;;
15645;SDS011;7922;43.622;1.476;2024-03-25T06:37:27;4.57;;;2.50;;
15645;SDS011;7922;43.622;1.476;2024-03-25T06:39:52;3.17;;;2.80;;
15645;SDS011;7922;43.622;1.476;2024-03-25T06:42:18;4.03;;;2.53;;
15645;SDS011;7922;43.622;1.476;2024-03-25T06:44:43;6.50;;;2.57;;
15645;SDS011;7922;43.622;1.476;2024-03-25T06:47:08;4.97;;;2.70;;
15645;SDS011;7922;43.622;1.476;2024-03-25T06:49:34;4.40;;;2.80;;
15645;SDS011;7922;43.622;1.476;2024-03-25T06:51:59;3.93;;;2.93;;
15645;SDS011;7922;43.622;1.476;2024-03-25T06:54:24;3.13;;;2.73;;
15645;SDS011;7922;43.622;1.476;2024-03-25T06:56:49;4.07;;;2.40;;
15645;SDS011;7922;43.622;1.476;2024-03-25T06:59:15;4.27;;;2.83;;
15645;SDS011;7922;43.622;1.476;2024-03-25T07:01:40;5.47;;;2.53;;
15645;SDS011;7922;43.622;1.476;2024-03-25T07:04:05;3.20;;;2.30;;
15645;SDS011;7922;43.622;1.476;2024-03-25T07:06:31;7.57;;;2.90;;
15645;SDS011;7922;43.622;1.476;2024-03-25T07:08:56;4.90;;;2.37;;
15645;SDS011;7922;43.622;1.476;2024-03-25T07:11:21;3.20;;;2.27;;
15645;SDS011;7922;43.622;1.476;2024-03-25T07:13:47;3.57;;;2.10;;
15645;SDS011;7922;43.622;1.476;2024-03-25T07:16:12;5.10;;;2.20;;
15645;SDS011;7922;43.622;1.476;2024-03-25T07:18:37;5.80;;;2.40;;
15645;SDS011;7922;43.622;1.476;2024-03-25T07:21:03;3.87;;;1.93;;
15645;SDS011;7922;43.622;1.476;2024-03-25T07:23:28;4.20;;;2.10;;
15645;SDS011;7922;43.622;1.476;2024-03-25T07:25:53;6.00;;;1.97;;
15645;SDS011;7922;43.622;1.476;2024-03-25T07:28:19;4.07;;;1.80;;
15645;SDS011;7922;43.622;1.476;2024-03-25T07:30:44;3.27;;;1.80;;
15645;SDS011;7922;43.622;1.476;2024-03-25T07:33:09;3.10;;;1.20;;
15645;SDS011;7922;43.622;1.476;2024-03-25T07:35:34;4.57;;;1.97;;
15645;SDS011;7922;43.622;1.476;2024-03-25T07:38:00;2.40;;;1.60;;
15645;SDS011;7922;43.622;1.476;2024-03-25T07:40:25;4.40;;;1.57;;
15645;SDS011;7922;43.622;1.476;2024-03-25T07:42:50;2.00;;;1.40;;
15645;SDS011;7922;43.622;1.476;2024-03-25T07:45:16;3.23;;;1.50;;
15645;SDS011;7922;43.622;1.476;2024-03-25T07:47:41;3.07;;;1.80;;
15645;SDS011;7922;43.622;1.476;2024-03-25T07:50:07;3.63;;;1.40;;
15645;SDS011;7922;43.622;1.476;2024-03-25T07:52:33;2.27;;;1.50;;
15645;SDS011;7922;43.622;1.476;2024-03-25T07:54:58;2.37;;;1.37;;
15645;SDS011;7922;43.622;1.476;2024-03-25T07:57:23;2.50;;;1.50;;
15645;SDS011;7922;43.622;1.476;2024-03-25T07:59:49;1.47;;;1.20;;
15645;SDS011;7922;43.622;1.476;2024-03-25T08:02:14;4.20;;;1.60;;
15645;SDS011;7922;43.622;1.476;2024-03-25T08:04:40;3.43;;;1.80;;
15645;SDS011;7922;43.622;1.476;2024-03-25T08:07:05;4.17;;;1.50;;
15645;SDS011;7922;43.622;1.476;2024-03-25T08:09:30;5.53;;;1.70;;
15645;SDS011;7922;43.622;1.476;2024-03-25T08:11:56;3.43;;;1.70;;
15645;SDS011;7922;43.622;1.476;2024-03-25T08:14:22;3.47;;;1.43;;
15645;SDS011;7922;43.622;1.476;2024-03-25T08:16:47;4.43;;;1.60;;
15645;SDS011;7922;43.622;1.476;2024-03-25T08:19:12;3.43;;;1.57;;
15645;SDS011;7922;43.622;1.476;2024-03-25T08:21:38;3.70;;;1.40;;
15645;SDS011;7922;43.622;1.476;2024-03-25T08:24:03;2.50;;;1.40;;
15645;SDS011;7922;43.622;1.476;2024-03-25T08:26:28;4.93;;;2.17;;
15645;SDS011;7922;43.622;1.476;2024-03-25T08:28:56;2.40;;;1.83;;
15645;SDS011;7922;43.622;1.476;2024-03-25T08:31:24;6.03;;;1.40;;
15645;SDS011;7922;43.622;1.476;2024-03-25T08:33:50;3.77;;;1.33;;
15645;SDS011;7922;43.622;1.476;2024-03-25T08:36:15;5.23;;;1.50;;
15645;SDS011;7922;43.622;1.476;2024-03-25T08:38:41;4.60;;;1.20;;
15645;SDS011;7922;43.622;1.476;2024-03-25T08:41:06;4.37;;;1.23;;
15645;SDS011;7922;43.622;1.476;2024-03-25T08:43:31;1.50;;;1.00;;
15645;SDS011;7922;43.622;1.476;2024-03-25T08:45:57;3.47;;;1.40;;
15645;SDS011;7922;43.622;1.476;2024-03-25T08:48:22;2.27;;;1.00;;
15645;SDS011;7922;43.622;1.476;2024-03-25T08:50:47;2.87;;;1.20;;
15645;SDS011;7922;43.622;1.476;2024-03-25T08:53:12;6.97;;;1.43;;
15645;SDS011;7922;43.622;1.476;2024-03-25T08:55:38;5.20;;;1.30;;
15645;SDS011;7922;43.622;1.476;2024-03-25T08:58:03;3.17;;;1.20;;
15645;SDS011;7922;43.622;1.476;2024-03-25T09:00:28;2.17;;;1.20;;
15645;SDS011;7922;43.622;1.476;2024-03-25T09:02:54;4.57;;;1.60;;
15645;SDS011;7922;43.622;1.476;2024-03-25T09:05:20;3.90;;;1.37;;
15645;SDS011;7922;43.622;1.476;2024-03-25T09:07:45;1.67;;;1.27;;
15645;SDS011;7922;43.622;1.476;2024-03-25T09:10:11;3.30;;;1.20;;
15645;SDS011;7922;43.622;1.476;2024-03-25T09:12:36;4.37;;;1.30;;
15645;SDS011;7922;43.622;1.476;2024-03-25T09:15:01;3.87;;;1.20;;
15645;SDS011;7922;43.622;1.476;2024-03-25T09:17:27;2.07;;;1.03;;
15645;SDS011;7922;43.622;1.476;2024-03-25T09:19:52;2.77;;;1.03;;
15645;SDS011;7922;43.622;1.476;2024-03-25T09:22:17;2.67;;;1.27;;
15645;SDS011;7922;43.622;1.476;2024-03-25T09:24:42;3.87;;;1.07;;
15645;SDS011;7922;43.622;1.476;2024-03-25T09:27:08;4.40;;;1.10;;
15645;SDS011;7922;43.622;1.476;2024-03-25T09:29:33;2.50;;;1.20;;
15645;SDS011;7922;43.622;1.476;2024-03-25T09:31:58;3.30;;;1.20;;
15645;SDS011;7922;43.622;1.476;2024-03-25T09:34:24;2.93;;;1.00;;
15645;SDS011;7922;43.622;1.476;2024-03-25T09:36:49;4.67;;;1.30;;
15645;SDS011;7922;43.622;1.476;2024-03-25T09:39:14;4.00;;;1.30;;
15645;SDS011;7922;43.622;1.476;2024-03-25T09:41:39;3.57;;;1.10;;
15645;SDS011;7922;43.622;1.476;2024-03-25T09:44:08;2.23;;;1.03;;
15645;SDS011;7922;43.622;1.476;2024-03-25T09:46:33;2.43;;;1.10;;
15645;SDS011;7922;43.622;1.476;2024-03-25T09:48:58;3.00;;;1.20;;
15645;SDS011;7922;43.622;1.476;2024-03-25T09:51:24;4.10;;;1.37;;
15645;SDS011;7922;43.622;1.476;2024-03-25T09:53:50;3.47;;;0.90;;
15645;SDS011;7922;43.622;1.476;2024-03-25T09:56:15;2.83;;;1.10;;
15645;SDS011;7922;43.622;1.476;2024-03-25T09:58:41;2.50;;;1.10;;
15645;SDS011;7922;43.622;1.476;2024-03-25T10:01:08;4.03;;;1.30;;
15645;SDS011;7922;43.622;1.476;2024-03-25T10:03:34;1.70;;;1.10;;
15645;SDS011;7922;43.622;1.476;2024-03-25T10:05:59;2.00;;;1.00;;
15645;SDS011;7922;43.622;1.476;2024-03-25T10:08:24;3.73;;;1.00;;
15645;SDS011;7922;43.622;1.476;2024-03-25T10:10:50;2.43;;;1.10;;
15645;SDS011;7922;43.622;1.476;2024-03-25T10:13:15;3.47;;;1.40;;
15645;SDS011;7922;43.622;1.476;2024-03-25T10:15:41;1.83;;;1.00;;
15645;SDS011;7922;43.622;1.476;2024-03-25T10:18:06;7.33;;;1.60;;
15645;SDS011;7922;43.622;1.476;2024-03-25T10:20:31;2.53;;;1.10;;
15645;SDS011;7922;43.622;1.476;2024-03-25T10:22:57;3.87;;;1.40;;
15645;SDS011;7922;43.622;1.476;2024-03-25T10:25:22;1.70;;;1.20;;
15645;SDS011;7922;43.622;1.476;2024-03-25T10:27:59;3.47;;;1.33;;
15645;SDS011;7922;43.622;1.476;2024-03-25T10:30:27;2.40;;;1.00;;
15645;SDS011;7922;43.622;1.476;2024-03-25T10:33:03;2.83;;;1.13;;
15645;SDS011;7922;43.622;1.476;2024-03-25T10:35:30;2.77;;;1.03;;
15645;SDS011;7922;43.622;1.476;2024-03-25T10:37:58;5.73;;;1.20;;
15645;SDS011;7922;43.622;1.476;2024-03-25T10:40:28;4.57;;;1.30;;
15645;SDS011;7922;43.622;1.476;2024-03-25T10:43:16;2.63;;;1.00;;
15645;SDS011;7922;43.622;1.476;2024-03-25T10:45:45;4.23;;;1.40;;
15645;SDS011;7922;43.622;1.476;2024-03-25T10:48:19;3.30;;;1.37;;
15645;SDS011;7922;43.622;1.476;2024-03-25T10:50:56;3.57;;;1.20;;
15645;SDS011;7922;43.622;1.476;2024-03-25T10:53:21;2.40;;;1.40;;
15645;SDS011;7922;43.622;1.476;2024-03-25T10:55:47;2.93;;;1.10;;
15645;SDS011;7922;43.622;1.476;2024-03-25T10:58:12;4.77;;;1.53;;
15645;SDS011;7922;43.622;1.476;2024-03-25T11:00:38;2.10;;;1.03;;
15645;SDS011;7922;43.622;1.476;2024-03-25T11:03:05;4.10;;;1.23;;
15645;SDS011;7922;43.622;1.476;2024-03-25T11:05:30;4.27;;;1.37;;
15645;SDS011;7922;43.622;1.476;2024-03-25T11:07:56;4.37;;;1.23;;
15645;SDS011;7922;43.622;1.476;2024-03-25T11:10:28;3.00;;;1.30;;
15645;SDS011;7922;43.622;1.476;2024-03-25T11:12:54;2.47;;;1.10;;
15645;SDS011;7922;43.622;1.476;2024-03-25T11:15:20;4.57;;;1.43;;
15645;SDS011;7922;43.622;1.476;2024-03-25T11:17:48;2.90;;;0.90;;
15645;SDS011;7922;43.622;1.476;2024-03-25T11:20:17;3.00;;;1.40;;
15645;SDS011;7922;43.622;1.476;2024-03-25T11:22:52;4.97;;;1.27;;
15645;SDS011;7922;43.622;1.476;2024-03-25T11:25:19;2.00;;;1.10;;
15645;SDS011;7922;43.622;1.476;2024-03-25T11:27:46;4.97;;;1.20;;
15645;SDS011;7922;43.622;1.476;2024-03-25T11:30:12;2.33;;;0.90;;
15645;SDS011;7922;43.622;1.476;2024-03-25T11:32:54;3.77;;;1.37;;
15645;SDS011;7922;43.622;1.476;2024-03-25T11:35:20;3.33;;;1.17;;
15645;SDS011;7922;43.622;1.476;2024-03-25T11:37:45;3.70;;;1.27;;
15645;SDS011;7922;43.622;1.476;2024-03-25T11:40:11;3.23;;;1.27;;
15645;SDS011;7922;43.622;1.476;2024-03-25T11:42:38;3.17;;;1.30;;
15645;SDS011;7922;43.622;1.476;2024-03-25T11:45:05;8.63;;;1.57;;
15645;SDS011;7922;43.622;1.476;2024-03-25T11:47:31;2.30;;;1.27;;
15645;SDS011;7922;43.622;1.476;2024-03-25T11:49:57;3.67;;;1.17;;
15645;SDS011;7922;43.622;1.476;2024-03-25T11:52:22;5.53;;;1.30;;
15645;SDS011;7922;43.622;1.476;2024-03-25T11:54:54;4.03;;;1.40;;
15645;SDS011;7922;43.622;1.476;2024-03-25T11:57:20;3.13;;;1.40;;
15645;SDS011;7922;43.622;1.476;2024-03-25T11:59:46;2.90;;;1.10;;
15645;SDS011;7922;43.622;1.476;2024-03-25T12:02:12;3.13;;;1.50;;
15645;SDS011;7922;43.622;1.476;2024-03-25T12:04:37;2.90;;;1.47;;
15645;SDS011;7922;43.622;1.476;2024-03-25T12:07:03;2.70;;;1.33;;
15645;SDS011;7922;43.622;1.476;2024-03-25T12:09:28;4.53;;;1.30;;
15645;SDS011;7922;43.622;1.476;2024-03-25T12:11:54;3.20;;;1.63;;
15645;SDS011;7922;43.622;1.476;2024-03-25T12:14:19;8.80;;;1.70;;
15645;SDS011;7922;43.622;1.476;2024-03-25T12:16:44;4.73;;;1.60;;
15645;SDS011;7922;43.622;1.476;2024-03-25T12:19:10;5.63;;;1.53;;
15645;SDS011;7922;43.622;1.476;2024-03-25T12:21:36;3.10;;;1.77;;
15645;SDS011;7922;43.622;1.476;2024-03-25T12:24:01;2.50;;;1.30;;
15645;SDS011;7922;43.622;1.476;2024-03-25T12:26:27;5.70;;;2.03;;
15645;SDS011;7922;43.622;1.476;2024-03-25T12:28:52;3.63;;;1.57;;
15645;SDS011;7922;43.622;1.476;2024-03-25T12:31:17;4.23;;;1.80;;
15645;SDS011;7922;43.622;1.476;2024-03-25T12:33:43;5.17;;;1.33;;
15645;SDS011;7922;43.622;1.476;2024-03-25T12:36:09;5.30;;;1.80;;
15645;SDS011;7922;43.622;1.476;2024-03-25T12:38:37;3.03;;;1.60;;
15645;SDS011;7922;43.622;1.476;2024-03-25T12:41:11;4.73;;;1.73;;
15645;SDS011;7922;43.622;1.476;2024-03-25T12:43:43;4.63;;;1.73;;
15645;SDS011;7922;43.622;1.476;2024-03-25T12:46:09;2.97;;;1.77;;
15645;SDS011;7922;43.622;1.476;2024-03-25T12:48:36;5.83;;;1.70;;
15645;SDS011;7922;43.622;1.476;2024-03-25T12:51:04;5.73;;;2.00;;
15645;SDS011;7922;43.622;1.476;2024-03-25T12:53:29;6.97;;;1.70;;
15645;SDS011;7922;43.622;1.476;2024-03-25T12:55:55;4.00;;;1.67;;
15645;SDS011;7922;43.622;1.476;2024-03-25T12:58:20;2.33;;;1.60;;
15645;SDS011;7922;43.622;1.476;2024-03-25T13:00:46;3.70;;;1.50;;
15645;SDS011;7922;43.622;1.476;2024-03-25T13:03:11;6.60;;;1.30;;
15645;SDS011;7922;43.622;1.476;2024-03-25T13:05:38;4.83;;;1.63;;
15645;SDS011;7922;43.622;1.476;2024-03-25T13:08:03;3.33;;;1.63;;
15645;SDS011;7922;43.622;1.476;2024-03-25T13:10:29;6.10;;;1.50;;
15645;SDS011;7922;43.622;1.476;2024-03-25T13:12:55;4.90;;;1.47;;
15645;SDS011;7922;43.622;1.476;2024-03-25T13:15:21;3.63;;;1.57;;
15645;SDS011;7922;43.622;1.476;2024-03-25T13:17:46;3.10;;;1.30;;
15645;SDS011;7922;43.622;1.476;2024-03-25T13:20:11;7.73;;;1.40;;
15645;SDS011;7922;43.622;1.476;2024-03-25T13:22:37;4.50;;;1.80;;
15645;SDS011;7922;43.622;1.476;2024-03-25T13:25:02;9.23;;;1.83;;
15645;SDS011;7922;43.622;1.476;2024-03-25T13:27:27;4.23;;;1.33;;
15645;SDS011;7922;43.622;1.476;2024-03-25T13:29:53;3.67;;;1.20;;
15645;SDS011;7922;43.622;1.476;2024-03-25T13:32:18;5.17;;;1.53;;
15645;SDS011;7922;43.622;1.476;2024-03-25T13:34:44;6.37;;;1.80;;
15645;SDS011;7922;43.622;1.476;2024-03-25T13:37:09;7.27;;;1.80;;
15645;SDS011;7922;43.622;1.476;2024-03-25T13:39:35;3.33;;;1.30;;
15645;SDS011;7922;43.622;1.476;2024-03-25T13:42:00;5.00;;;1.43;;
15645;SDS011;7922;43.622;1.476;2024-03-25T13:44:25;3.13;;;1.20;;
15645;SDS011;7922;43.622;1.476;2024-03-25T13:46:51;4.40;;;1.40;;
15645;SDS011;7922;43.622;1.476;2024-03-25T13:49:16;5.03;;;1.57;;
15645;SDS011;7922;43.622;1.476;2024-03-25T13:51:41;6.03;;;1.50;;
15645;SDS011;7922;43.622;1.476;2024-03-25T13:54:07;7.80;;;1.60;;
15645;SDS011;7922;43.622;1.476;2024-03-25T13:56:32;7.37;;;1.57;;
15645;SDS011;7922;43.622;1.476;2024-03-25T13:58:57;6.23;;;1.23;;
15645;SDS011;7922;43.622;1.476;2024-03-25T14:01:23;4.77;;;1.37;;
15645;SDS011;7922;43.622;1.476;2024-03-25T14:03:48;4.23;;;1.20;;
15645;SDS011;7922;43.622;1.476;2024-03-25T14:06:13;4.00;;;1.10;;
15645;SDS011;7922;43.622;1.476;2024-03-25T14:08:38;3.40;;;1.60;;
15645;SDS011;7922;43.622;1.476;2024-03-25T14:11:04;8.10;;;1.40;;
15645;SDS011;7922;43.622;1.476;2024-03-25T14:13:29;4.03;;;1.50;;
15645;SDS011;7922;43.622;1.476;2024-03-25T14:15:54;3.13;;;1.70;;
15645;SDS011;7922;43.622;1.476;2024-03-25T14:18:20;5.13;;;1.50;;
15645;SDS011;7922;43.622;1.476;2024-03-25T14:20:45;3.50;;;1.50;;
15645;SDS011;7922;43.622;1.476;2024-03-25T14:23:10;2.83;;;1.53;;
15645;SDS011;7922;43.622;1.476;2024-03-25T14:25:35;3.97;;;1.63;;
15645;SDS011;7922;43.622;1.476;2024-03-25T14:28:02;4.83;;;1.43;;
15645;SDS011;7922;43.622;1.476;2024-03-25T14:30:27;5.23;;;1.97;;
15645;SDS011;7922;43.622;1.476;2024-03-25T14:32:53;4.27;;;1.70;;
15645;SDS011;7922;43.622;1.476;2024-03-25T14:35:18;3.47;;;1.40;;
15645;SDS011;7922;43.622;1.476;2024-03-25T14:37:43;2.90;;;1.10;;
15645;SDS011;7922;43.622;1.476;2024-03-25T14:40:08;3.07;;;1.47;;
15645;SDS011;7922;43.622;1.476;2024-03-25T14:42:34;3.17;;;1.30;;
15645;SDS011;7922;43.622;1.476;2024-03-25T14:44:59;5.07;;;1.50;;
15645;SDS011;7922;43.622;1.476;2024-03-25T14:47:25;4.63;;;1.80;;
15645;SDS011;7922;43.622;1.476;2024-03-25T14:49:50;4.93;;;1.80;;
15645;SDS011;7922;43.622;1.476;2024-03-25T14:52:15;4.77;;;1.50;;